Time;durP1;ratioP1;P1;durP2;ratioP2;P2;SDS_P1;SDS_P2;PMS_P1;PMS_P2;Temp;Humidity;BMP_temperature;BMP_pressure;BME280_temperature;BME280_humidity;BME280_pressure;Samples;Min_cycle;Max_cycle;Signal;HPM_P1;HPM_P2
2023/05/19 00:00:00;;;;;;;1.60;0.90;;;18.50;99.90;;;;;;5071487;28;20176;-72
2023/05/19 00:02:32;;;;;;;3.40;0.90;;;18.50;99.90;;;;;;5071693;28;20552;-71
2023/05/19 00:05:01;;;;;;;3.80;0.70;;;18.60;99.90;;;;;;5071123;28;20179;-72
2023/05/19 00:07:31;;;;;;;0.97;0.80;;;18.30;99.90;;;;;;5071402;28;20182;-72
2023/05/19 00:09:59;;;;;;;1.97;0.80;;;18.50;99.90;;;;;;5071464;28;20187;-70
2023/05/19 00:12:27;;;;;;;4.50;0.90;;;19.00;99.90;;;;;;5070996;28;20188;-71
2023/05/19 00:14:55;;;;;;;1.43;0.83;;;19.30;99.90;;;;;;5071588;28;20211;-72
2023/05/19 00:17:23;;;;;;;4.80;1.33;;;19.50;99.90;;;;;;5071510;28;20215;-69
2023/05/19 00:19:53;;;;;;;1.83;0.83;;;19.30;99.90;;;;;;5070626;28;20217;-73
2023/05/19 00:22:21;;;;;;;1.07;0.80;;;19.40;99.90;;;;;;5070650;28;20187;-70
2023/05/19 00:24:49;;;;;;;1.27;0.70;;;19.50;99.90;;;;;;5070535;28;20278;-71
2023/05/19 00:27:17;;;;;;;1.40;0.80;;;19.50;99.90;;;;;;5070442;28;20660;-71
2023/05/19 00:29:45;;;;;;;2.27;0.80;;;19.80;99.90;;;;;;5071188;28;20183;-71
2023/05/19 00:32:12;;;;;;;9.00;0.93;;;19.70;98.70;;;;;;5070354;28;20234;-70
2023/05/19 00:34:40;;;;;;;1.53;0.87;;;19.50;99.90;;;;;;5070303;28;20233;-72
2023/05/19 00:37:08;;;;;;;3.43;0.67;;;19.70;98.40;;;;;;5071088;28;20238;-74
2023/05/19 00:39:36;;;;;;;1.13;0.93;;;19.90;98.90;;;;;;5071096;28;20650;-74
2023/05/19 00:42:04;;;;;;;3.37;0.80;;;20.10;95.90;;;;;;5069745;28;20232;-74
2023/05/19 00:44:32;;;;;;;0.97;0.80;;;20.50;94.50;;;;;;5076926;28;20270;-75
2023/05/19 00:47:00;;;;;;;1.53;0.73;;;20.60;93.90;;;;;;5067998;28;20645;-71
2023/05/19 00:49:28;;;;;;;1.13;0.60;;;20.50;93.90;;;;;;5077614;28;20184;-75
2023/05/19 00:51:56;;;;;;;1.43;0.80;;;20.50;91.50;;;;;;5077710;28;20523;-74
2023/05/19 00:54:24;;;;;;;0.83;0.53;;;20.90;90.90;;;;;;5076829;28;20274;-73
2023/05/19 00:56:53;;;;;;;2.20;0.80;;;21.10;90.10;;;;;;5077783;28;20554;-72
2023/05/19 00:59:20;;;;;;;3.90;0.70;;;21.20;89.30;;;;;;5077969;28;20635;-73
2023/05/19 01:01:49;;;;;;;1.30;0.60;;;21.50;87.40;;;;;;5077945;28;20176;-73
2023/05/19 01:04:20;;;;;;;3.00;0.60;;;21.80;84.00;;;;;;5077406;28;20258;-73
2023/05/19 01:06:53;;;;;;;1.63;0.83;;;21.70;84.30;;;;;;5077960;28;20187;-73
2023/05/19 01:09:24;;;;;;;4.00;0.80;;;21.30;81.80;;;;;;5077664;28;20190;-73
2023/05/19 01:11:52;;;;;;;1.63;0.80;;;21.10;80.60;;;;;;5075717;28;20300;-72
2023/05/19 01:14:21;;;;;;;1.33;0.70;;;21.30;79.10;;;;;;5076477;28;20666;-74
2023/05/19 01:17:34;;;;;;;0.77;0.53;;;21.10;71.90;;;;;;5077767;28;20180;-73
2023/05/19 01:20:24;;;;;;;1.83;0.70;;;21.40;71.80;;;;;;5066295;28;20640;-73
2023/05/19 01:23:30;;;;;;;2.47;0.77;;;22.00;69.60;;;;;;5077849;28;20315;-73
2023/05/19 01:25:58;;;;;;;2.10;0.63;;;22.00;65.50;;;;;;5070065;28;20218;-73
2023/05/19 01:28:31;;;;;;;1.27;0.90;;;21.80;61.80;;;;;;5077572;28;20200;-72
2023/05/19 01:31:01;;;;;;;1.80;0.50;;;21.40;59.00;;;;;;5077753;28;20203;-70
2023/05/19 01:33:30;;;;;;;1.27;0.60;;;21.40;63.20;;;;;;5077232;28;20184;-72
2023/05/19 01:36:02;;;;;;;1.97;0.80;;;21.10;56.40;;;;;;5076256;28;20255;-72
2023/05/19 01:38:30;;;;;;;0.60;0.50;;;21.20;57.60;;;;;;5077728;28;20186;-71
2023/05/19 01:41:00;;;;;;;2.30;0.90;;;21.40;59.70;;;;;;5076105;28;20275;-75
2023/05/19 01:43:28;;;;;;;1.07;0.70;;;22.00;59.30;;;;;;5077525;28;20215;-73
2023/05/19 01:45:57;;;;;;;0.83;0.53;;;22.30;53.40;;;;;;5077791;28;20649;-72
2023/05/19 01:48:25;;;;;;;1.00;0.50;;;22.30;50.30;;;;;;5077257;28;20172;-73
2023/05/19 01:50:56;;;;;;;4.20;0.80;;;21.80;50.10;;;;;;5077590;28;20180;-74
2023/05/19 01:53:25;;;;;;;1.37;0.90;;;21.50;52.70;;;;;;5076221;28;20230;-74
2023/05/19 01:55:56;;;;;;;1.57;0.57;;;21.90;52.20;;;;;;5074131;28;20819;-73
2023/05/19 01:58:41;;;;;;;1.23;0.60;;;22.30;55.70;;;;;;5074445;28;20259;-72
2023/05/19 02:01:24;;;;;;;1.30;0.70;;;22.40;51.80;;;;;;5074211;28;20180;-73
2023/05/19 02:04:22;;;;;;;1.33;0.60;;;22.30;53.10;;;;;;5073310;28;20179;-73
2023/05/19 02:07:37;;;;;;;1.10;0.50;;;22.80;52.00;;;;;;5073295;28;20175;-74
2023/05/19 02:10:16;;;;;;;0.90;0.50;;;23.90;49.50;;;;;;5104656;28;20183;-73
2023/05/19 02:12:47;;;;;;;0.40;0.40;;;23.90;43.10;;;;;;5072360;28;20164;-75
2023/05/19 02:15:20;;;;;;;2.23;0.60;;;23.80;41.10;;;;;;5073988;28;20215;-73
2023/05/19 02:17:53;;;;;;;2.17;0.50;;;23.30;40.20;;;;;;5073797;28;20204;-75
2023/05/19 02:20:23;;;;;;;1.00;0.50;;;23.30;36.40;;;;;;5073907;28;20172;-75
2023/05/19 02:22:51;;;;;;;1.07;0.47;;;23.40;36.40;;;;;;5073008;28;20184;-72
2023/05/19 02:25:20;;;;;;;0.50;0.50;;;22.90;38.50;;;;;;5073211;28;20314;-73
2023/05/19 02:31:10;;;;;;;1.03;0.50;;;22.90;37.80;;;;;;5073132;28;20287;-75
2023/05/19 02:33:37;;;;;;;0.37;0.37;;;23.10;35.30;;;;;;5073627;28;20699;-71
2023/05/19 02:36:06;;;;;;;0.50;0.50;;;23.00;32.60;;;;;;5073502;28;20322;-75
2023/05/19 02:38:33;;;;;;;0.87;0.50;;;22.90;35.60;;;;;;5073539;28;20188;-75
2023/05/19 02:41:01;;;;;;;0.93;0.63;;;22.60;32.40;;;;;;5073224;28;20190;-75
2023/05/19 02:43:29;;;;;;;2.03;0.60;;;22.50;31.90;;;;;;5073295;28;20195;-73
2023/05/19 02:45:57;;;;;;;0.83;0.57;;;23.10;35.80;;;;;;5073104;28;20176;-73
2023/05/19 02:48:24;;;;;;;1.40;0.77;;;23.10;34.20;;;;;;5073643;28;20267;-72
2023/05/19 02:50:52;;;;;;;1.10;0.60;;;23.20;33.30;;;;;;5074812;28;20180;-74
2023/05/19 02:53:20;;;;;;;2.30;0.50;;;23.20;30.70;;;;;;5072942;28;20607;-73
2023/05/19 02:55:48;;;;;;;2.50;0.47;;;23.70;32.10;;;;;;5072677;28;20212;-73
2023/05/19 02:58:15;;;;;;;3.50;0.70;;;23.60;30.80;;;;;;5073239;28;20287;-73
2023/05/19 03:00:44;;;;;;;1.53;0.60;;;23.30;31.00;;;;;;5072736;28;20264;-74
2023/05/19 03:03:12;;;;;;;1.10;0.60;;;23.10;32.20;;;;;;5073083;28;20264;-71
2023/05/19 03:05:40;;;;;;;0.80;0.33;;;23.40;29.90;;;;;;5072328;28;20510;-74
2023/05/19 03:08:08;;;;;;;0.93;0.77;;;23.50;29.80;;;;;;5072866;28;20180;-72
2023/05/19 03:10:36;;;;;;;0.80;0.50;;;23.50;31.60;;;;;;5068132;28;20641;-75
2023/05/19 03:13:04;;;;;;;1.20;0.73;;;23.50;29.20;;;;;;5072471;28;20184;-73
2023/05/19 03:15:33;;;;;;;5.33;0.90;;;23.70;29.20;;;;;;5072241;28;20578;-73
2023/05/19 03:18:00;;;;;;;1.13;0.70;;;23.70;28.80;;;;;;5072066;28;20515;-74
2023/05/19 03:20:29;;;;;;;0.90;0.50;;;23.70;27.90;;;;;;5071965;28;20220;-69
2023/05/19 03:22:57;;;;;;;2.97;0.47;;;23.80;28.70;;;;;;5071890;28;20542;-71
2023/05/19 03:25:25;;;;;;;2.47;0.90;;;24.10;26.50;;;;;;5070968;28;20183;-73
2023/05/19 03:27:53;;;;;;;1.73;0.60;;;23.40;26.80;;;;;;5072459;28;20183;-74
2023/05/19 03:30:21;;;;;;;2.27;0.53;;;23.40;26.60;;;;;;5072161;28;20640;-73
2023/05/19 03:32:50;;;;;;;3.90;0.73;;;23.50;26.80;;;;;;5071327;28;20364;-70
2023/05/19 03:35:18;;;;;;;0.80;0.50;;;24.00;26.50;;;;;;5071650;28;20219;-69
2023/05/19 03:37:46;;;;;;;0.93;0.43;;;24.10;25.10;;;;;;5071765;28;20226;-73
2023/05/19 03:40:14;;;;;;;1.43;0.57;;;24.30;22.40;;;;;;5071448;28;20655;-73
2023/05/19 03:42:42;;;;;;;1.37;0.40;;;24.00;23.70;;;;;;5071976;28;20621;-71
2023/05/19 03:45:10;;;;;;;1.57;0.70;;;23.40;23.30;;;;;;5071217;28;20601;-74
2023/05/19 03:47:37;;;;;;;0.43;0.37;;;23.10;23.60;;;;;;5071614;28;20176;-73
2023/05/19 03:50:06;;;;;;;3.00;0.40;;;23.10;24.10;;;;;;5071849;28;20577;-73
2023/05/19 03:52:33;;;;;;;2.77;0.50;;;23.20;25.10;;;;;;5071831;28;20259;-74
2023/05/19 03:55:01;;;;;;;1.13;0.50;;;23.20;25.50;;;;;;5070912;28;20211;-74
2023/05/19 03:57:29;;;;;;;2.90;0.50;;;23.10;24.70;;;;;;5071575;28;20210;-74
2023/05/19 03:59:57;;;;;;;0.43;0.43;;;23.10;25.20;;;;;;5072006;28;20180;-74
2023/05/19 04:02:24;;;;;;;1.50;0.60;;;22.80;24.60;;;;;;5069884;28;20180;-74
2023/05/19 04:04:52;;;;;;;1.33;0.43;;;22.60;25.60;;;;;;5071716;28;20175;-71
2023/05/19 04:07:20;;;;;;;0.73;0.60;;;22.80;25.90;;;;;;5071650;28;20176;-75
2023/05/19 04:09:49;;;;;;;2.77;0.60;;;22.70;25.90;;;;;;5071452;28;20230;-73
2023/05/19 04:12:16;;;;;;;0.70;0.60;;;22.80;25.20;;;;;;5070974;28;20187;-74
2023/05/19 04:14:44;;;;;;;0.63;0.40;;;22.80;24.00;;;;;;5070745;28;20188;-75
2023/05/19 04:17:12;;;;;;;2.10;0.50;;;22.90;26.00;;;;;;5070914;28;20180;-74
2023/05/19 04:19:40;;;;;;;3.60;0.50;;;22.70;24.70;;;;;;5071265;28;20200;-73
2023/05/19 04:22:08;;;;;;;4.73;0.53;;;22.80;25.70;;;;;;5071273;28;20179;-71
2023/05/19 04:24:35;;;;;;;2.00;0.70;;;22.50;26.20;;;;;;5070664;28;20184;-74
2023/05/19 04:27:03;;;;;;;1.53;1.00;;;22.60;27.20;;;;;;5071579;28;20361;-73
2023/05/19 04:29:31;;;;;;;2.10;0.67;;;22.80;27.90;;;;;;5071371;28;20262;-73
2023/05/19 04:31:59;;;;;;;0.80;0.60;;;22.90;28.50;;;;;;5071256;28;20183;-72
2023/05/19 04:34:27;;;;;;;2.30;0.70;;;22.60;28.20;;;;;;5071370;28;20187;-74
2023/05/19 04:36:55;;;;;;;2.20;0.80;;;22.70;28.80;;;;;;5071773;28;20238;-72
2023/05/19 04:39:23;;;;;;;1.20;0.50;;;22.60;28.10;;;;;;5071128;28;20214;-73
2023/05/19 04:41:52;;;;;;;0.87;0.60;;;22.20;28.00;;;;;;5071747;28;20213;-72
2023/05/19 04:44:20;;;;;;;3.77;0.73;;;22.30;30.30;;;;;;5070857;28;20176;-74
2023/05/19 04:46:48;;;;;;;1.00;0.40;;;22.30;28.20;;;;;;5070926;28;20184;-74
2023/05/19 04:49:18;;;;;;;2.90;0.93;;;22.40;28.50;;;;;;5071634;28;20649;-73
2023/05/19 04:51:48;;;;;;;2.97;0.60;;;22.40;28.30;;;;;;5071561;28;20171;-72
2023/05/19 04:54:16;;;;;;;3.53;0.77;;;22.40;27.10;;;;;;5070953;28;20668;-74
2023/05/19 04:56:44;;;;;;;1.80;0.53;;;22.60;27.40;;;;;;5071143;28;20276;-75
2023/05/19 04:59:12;;;;;;;1.87;0.40;;;22.60;28.70;;;;;;5071294;28;20664;-74
2023/05/19 05:01:41;;;;;;;3.87;0.67;;;22.70;28.40;;;;;;5071002;28;20184;-73
2023/05/19 05:04:09;;;;;;;1.60;0.80;;;22.70;28.20;;;;;;5071090;28;20255;-73
2023/05/19 05:06:37;;;;;;;0.77;0.57;;;22.70;28.10;;;;;;5070948;28;20554;-74
2023/05/19 05:09:05;;;;;;;3.27;0.60;;;22.40;27.40;;;;;;5069639;28;20191;-74
2023/05/19 05:11:33;;;;;;;7.30;1.07;;;22.30;27.90;;;;;;5069639;28;20179;-73
2023/05/19 05:14:01;;;;;;;1.53;0.83;;;22.30;28.50;;;;;;5071029;28;20192;-75
2023/05/19 05:16:29;;;;;;;2.17;0.63;;;22.20;27.80;;;;;;5069875;28;20584;-74
2023/05/19 05:22:19;;;;;;;1.50;0.70;;;21.70;28.80;;;;;;5070193;28;20237;-73
2023/05/19 05:24:48;;;;;;;2.37;0.70;;;21.30;29.10;;;;;;5070734;28;20263;-74
2023/05/19 05:27:15;;;;;;;1.43;0.50;;;21.00;29.10;;;;;;5070549;28;20192;-74
2023/05/19 05:29:43;;;;;;;2.50;0.80;;;20.70;30.50;;;;;;5070905;28;20184;-71
2023/05/19 05:32:11;;;;;;;1.33;0.70;;;20.50;31.50;;;;;;5074335;28;20182;-73
2023/05/19 05:34:40;;;;;;;4.13;0.60;;;20.20;33.70;;;;;;5073631;28;20190;-74
2023/05/19 05:37:08;;;;;;;1.50;0.80;;;19.90;33.60;;;;;;5073988;28;20227;-75
2023/05/19 05:39:36;;;;;;;3.60;0.80;;;19.60;36.40;;;;;;5074311;28;20184;-75
2023/05/19 05:42:04;;;;;;;2.97;0.70;;;19.30;37.90;;;;;;5075624;28;20187;-73
2023/05/19 05:44:34;;;;;;;0.97;0.73;;;19.20;39.60;;;;;;5074451;28;20278;-75
2023/05/19 05:47:03;;;;;;;1.60;0.80;;;19.10;39.80;;;;;;5074499;28;20172;-74
2023/05/19 05:49:31;;;;;;;1.10;0.80;;;18.90;42.20;;;;;;5075468;28;20633;-73
2023/05/19 05:51:59;;;;;;;1.53;0.60;;;18.80;42.70;;;;;;5076544;28;20224;-74
2023/05/19 05:54:27;;;;;;;4.00;0.60;;;18.60;43.80;;;;;;5075565;28;20202;-74
2023/05/19 05:56:55;;;;;;;1.63;0.70;;;18.40;45.10;;;;;;5075496;28;20212;-74
2023/05/19 05:59:23;;;;;;;2.97;0.80;;;18.20;49.30;;;;;;5075411;28;20625;-73
2023/05/19 06:01:51;;;;;;;1.97;1.10;;;18.10;52.30;;;;;;5075117;28;20179;-74
2023/05/19 06:04:19;;;;;;;2.80;0.90;;;18.00;49.30;;;;;;5075551;28;20172;-73
2023/05/19 06:06:47;;;;;;;2.87;0.90;;;18.00;54.70;;;;;;5075405;28;20172;-72
2023/05/19 06:09:15;;;;;;;2.93;0.90;;;17.80;59.30;;;;;;5074682;28;20180;-73
2023/05/19 06:11:43;;;;;;;1.23;0.70;;;17.80;64.10;;;;;;5074949;28;20180;-74
2023/05/19 06:14:11;;;;;;;1.70;0.70;;;17.70;64.50;;;;;;5070503;28;20171;-69
2023/05/19 06:16:38;;;;;;;1.10;0.70;;;17.60;62.30;;;;;;5073424;28;20239;-74
2023/05/19 06:19:06;;;;;;;5.17;1.00;;;17.60;63.30;;;;;;5074004;28;20168;-74
2023/05/19 06:21:34;;;;;;;2.47;1.23;;;17.50;70.70;;;;;;5073381;28;20187;-73
2023/05/19 06:24:01;;;;;;;2.70;1.40;;;17.50;69.30;;;;;;5073784;28;20627;-73
2023/05/19 06:26:29;;;;;;;4.07;1.60;;;17.40;68.90;;;;;;5073871;28;20269;-74
2023/05/19 06:28:57;;;;;;;3.87;1.80;;;17.40;70.80;;;;;;5072896;28;20649;-73
2023/05/19 06:31:25;;;;;;;5.57;1.10;;;17.30;74.80;;;;;;5072170;28;20175;-74
2023/05/19 06:33:53;;;;;;;3.47;1.47;;;17.40;77.40;;;;;;5073013;28;20168;-73
2023/05/19 06:36:21;;;;;;;2.57;1.67;;;17.30;78.70;;;;;;5072293;28;20324;-71
2023/05/19 06:38:48;;;;;;;4.00;1.80;;;17.30;81.50;;;;;;5073246;28;20176;-73
2023/05/19 06:41:16;;;;;;;4.47;2.30;;;17.20;83.50;;;;;;5071761;28;20180;-73
2023/05/19 06:43:44;;;;;;;6.73;1.90;;;17.10;89.60;;;;;;5072080;28;20180;-71
2023/05/19 06:46:12;;;;;;;2.60;1.50;;;17.00;91.50;;;;;;5071718;28;20591;-72
2023/05/19 06:48:40;;;;;;;3.90;1.80;;;16.80;96.70;;;;;;5071757;28;20288;-73
2023/05/19 06:51:09;;;;;;;2.23;1.87;;;16.70;99.60;;;;;;5071685;28;20203;-72
2023/05/19 06:53:36;;;;;;;2.53;1.60;;;16.60;99.90;;;;;;5072590;28;20240;-70
2023/05/19 06:56:04;;;;;;;3.43;1.50;;;16.30;99.90;;;;;;5072057;28;20362;-72
2023/05/19 06:58:32;;;;;;;4.17;1.60;;;16.30;99.90;;;;;;5073617;28;20554;-70
2023/05/19 07:01:00;;;;;;;2.17;1.43;;;16.20;99.90;;;;;;5073783;28;20186;-70
2023/05/19 07:03:29;;;;;;;2.43;1.50;;;16.00;99.90;;;;;;5073682;28;20180;-71
2023/05/19 07:05:57;;;;;;;5.27;1.97;;;15.80;99.90;;;;;;5073228;28;20184;-73
2023/05/19 07:08:26;;;;;;;4.03;1.53;;;15.70;99.90;;;;;;5072955;28;20195;-74
2023/05/19 07:10:55;;;;;;;1.93;1.63;;;15.60;99.90;;;;;;5073712;28;20210;-73
2023/05/19 07:13:23;;;;;;;2.87;1.60;;;15.40;99.90;;;;;;5073808;28;20180;-67
2023/05/19 07:15:54;;;;;;;4.73;1.57;;;15.30;99.90;;;;;;5073934;28;20225;-72
2023/05/19 07:18:22;;;;;;;8.37;1.60;;;15.20;99.90;;;;;;5073569;28;20183;-73
2023/05/19 07:20:56;;;;;;;3.20;1.77;;;15.10;99.90;;;;;;5067044;28;20585;-72
2023/05/19 07:23:24;;;;;;;3.13;1.60;;;15.00;99.90;;;;;;5071980;28;20192;-72
2023/05/19 07:25:57;;;;;;;3.53;1.83;;;14.90;99.90;;;;;;5072783;28;20184;-73
2023/05/19 07:28:25;;;;;;;5.30;1.60;;;14.80;99.90;;;;;;5072079;28;20176;-71
2023/05/19 07:30:53;;;;;;;2.50;1.60;;;14.70;99.90;;;;;;5072493;28;20191;-73
2023/05/19 07:33:21;;;;;;;3.50;1.50;;;14.60;99.90;;;;;;5071697;28;20655;-72
2023/05/19 07:35:49;;;;;;;7.77;2.03;;;14.50;99.90;;;;;;5071773;28;20231;-72
2023/05/19 07:38:16;;;;;;;4.70;1.93;;;14.40;99.90;;;;;;5072491;28;20184;-74
2023/05/19 07:40:45;;;;;;;7.03;1.87;;;14.20;99.90;;;;;;5072464;28;20211;-74
2023/05/19 07:43:12;;;;;;;8.20;2.00;;;14.20;99.90;;;;;;5071597;28;20226;-71
2023/05/19 07:45:40;;;;;;;6.03;3.23;;;14.10;99.90;;;;;;5072282;28;20215;-72
2023/05/19 07:48:08;;;;;;;3.77;1.73;;;14.00;99.90;;;;;;5071685;28;20190;-72
2023/05/19 07:50:37;;;;;;;5.33;2.53;;;13.90;99.90;;;;;;5069976;28;20221;-73
2023/05/19 07:53:04;;;;;;;10.20;2.03;;;13.70;99.90;;;;;;5071485;28;20225;-74
2023/05/19 07:55:32;;;;;;;8.17;1.90;;;13.70;99.90;;;;;;5072191;28;20215;-73
2023/05/19 07:58:00;;;;;;;5.83;1.90;;;13.70;99.90;;;;;;5071915;28;20190;-73
2023/05/19 08:00:27;;;;;;;7.10;1.70;;;13.60;99.90;;;;;;5071776;28;20542;-72
2023/05/19 08:02:56;;;;;;;12.97;2.03;;;13.50;99.90;;;;;;5071683;28;20250;-73
2023/05/19 08:05:24;;;;;;;8.40;2.20;;;13.50;99.90;;;;;;5071700;28;20179;-72
2023/05/19 08:07:52;;;;;;;7.33;2.17;;;13.40;99.90;;;;;;5072323;28;20257;-73
2023/05/19 08:10:20;;;;;;;5.23;2.00;;;13.40;99.90;;;;;;5071967;28;20176;-74
2023/05/19 08:12:48;;;;;;;4.73;2.23;;;13.40;99.90;;;;;;5071494;28;20178;-73
2023/05/19 08:15:15;;;;;;;7.30;2.30;;;13.40;99.90;;;;;;5071565;28;20210;-73
2023/05/19 08:17:43;;;;;;;6.33;2.30;;;13.50;99.90;;;;;;5071928;28;20177;-73
2023/05/19 08:20:11;;;;;;;6.23;2.27;;;13.50;99.90;;;;;;5071348;28;20175;-73
2023/05/19 08:22:39;;;;;;;3.20;2.00;;;13.50;99.90;;;;;;5071145;28;20171;-71
2023/05/19 08:25:08;;;;;;;6.07;2.60;;;13.50;99.90;;;;;;5071907;28;20271;-73
2023/05/19 08:27:36;;;;;;;6.60;2.27;;;13.50;99.90;;;;;;5071354;28;20206;-71
2023/05/19 08:30:04;;;;;;;11.07;2.70;;;13.40;99.90;;;;;;5071607;28;20248;-69
2023/05/19 08:32:31;;;;;;;7.57;2.20;;;13.30;99.90;;;;;;5071529;28;20207;-74
2023/05/19 08:34:59;;;;;;;5.30;2.57;;;13.20;99.90;;;;;;5071286;28;20202;-72
2023/05/19 08:37:27;;;;;;;6.83;2.53;;;13.10;99.90;;;;;;5071641;28;20317;-71
2023/05/19 08:39:56;;;;;;;6.77;2.47;;;12.90;99.90;;;;;;5071339;28;20187;-73
2023/05/19 08:42:23;;;;;;;10.10;2.87;;;12.90;99.90;;;;;;5070796;28;20182;-73
2023/05/19 08:44:51;;;;;;;3.80;2.60;;;12.80;99.90;;;;;;5071689;28;20663;-73
2023/05/19 08:47:19;;;;;;;5.40;2.80;;;12.80;99.90;;;;;;5071643;28;20187;-74
2023/05/19 08:49:52;;;;;;;6.63;2.97;;;12.80;99.90;;;;;;5071153;28;20182;-73
2023/05/19 08:53:01;;;;;;;4.87;2.57;;;12.80;99.90;;;;;;5070879;28;20194;-73
2023/05/19 08:55:45;;;;;;;10.63;3.03;;;12.80;99.90;;;;;;5067357;28;20259;-73
2023/05/19 08:58:15;;;;;;;9.43;3.43;;;12.70;99.90;;;;;;5072865;28;20266;-72
2023/05/19 09:00:43;;;;;;;14.13;4.00;;;12.50;99.90;;;;;;5072598;28;20539;-73
2023/05/19 09:03:14;;;;;;;10.20;3.27;;;12.40;99.90;;;;;;5072350;28;20217;-73
2023/05/19 09:05:42;;;;;;;8.07;3.50;;;12.30;99.90;;;;;;5075947;28;20172;-72
2023/05/19 09:08:10;;;;;;;4.33;2.57;;;12.30;99.90;;;;;;5076570;28;20656;-74
2023/05/19 09:10:38;;;;;;;6.23;3.03;;;12.10;99.90;;;;;;5076437;28;20234;-73
2023/05/19 09:13:06;;;;;;;6.17;2.67;;;12.00;99.90;;;;;;5076527;28;20260;-72
2023/05/19 09:15:36;;;;;;;7.47;3.50;;;12.00;99.90;;;;;;5076332;28;20298;-74
2023/05/19 09:18:09;;;;;;;7.80;3.73;;;11.90;99.90;;;;;;5076581;28;20205;-73
2023/05/19 09:20:44;;;;;;;6.40;3.43;;;11.90;99.90;;;;;;5076328;28;20175;-74
2023/05/19 09:23:17;;;;;;;9.30;3.83;;;11.80;99.90;;;;;;5076207;28;20181;-71
2023/05/19 09:25:49;;;;;;;12.40;3.73;;;11.70;99.90;;;;;;5076254;28;20235;-74
2023/05/19 09:28:32;;;;;;;9.40;4.17;;;11.70;99.90;;;;;;5076052;28;20197;-72
2023/05/19 09:31:08;;;;;;;6.63;3.67;;;11.60;99.90;;;;;;5076139;28;20178;-73
2023/05/19 09:33:44;;;;;;;12.20;5.10;;;11.60;99.90;;;;;;5075982;28;20179;-74
2023/05/19 09:36:12;;;;;;;7.97;4.43;;;11.50;99.90;;;;;;5074897;28;20238;-73
2023/05/19 09:38:40;;;;;;;10.50;4.40;;;11.40;99.90;;;;;;5075764;28;20640;-74
2023/05/19 09:41:08;;;;;;;10.83;4.53;;;11.30;99.90;;;;;;5075907;28;20252;-73
2023/05/19 09:43:36;;;;;;;8.87;4.17;;;11.30;99.90;;;;;;5075471;28;20171;-71
2023/05/19 09:46:12;;;;;;;10.17;3.90;;;11.30;99.90;;;;;;5075720;28;20175;-71
2023/05/19 09:48:41;;;;;;;8.90;4.37;;;11.30;99.90;;;;;;5077969;28;20216;-75
2023/05/19 09:51:09;;;;;;;8.37;4.23;;;11.30;99.90;;;;;;5081566;28;20182;-72
2023/05/19 09:53:37;;;;;;;12.10;3.90;;;11.20;99.90;;;;;;5076095;28;20382;-73
2023/05/19 09:56:08;;;;;;;8.17;4.03;;;11.20;99.90;;;;;;5075701;28;20632;-72
2023/05/19 09:58:36;;;;;;;11.33;4.87;;;11.10;99.90;;;;;;5075100;28;20180;-72
2023/05/19 10:01:05;;;;;;;9.17;4.50;;;11.10;99.90;;;;;;5075456;28;20555;-71
2023/05/19 10:03:34;;;;;;;9.57;3.93;;;11.00;99.90;;;;;;5073904;28;20262;-72
2023/05/19 10:06:03;;;;;;;8.90;4.97;;;10.90;99.90;;;;;;5074292;28;20179;-74
2023/05/19 10:08:33;;;;;;;8.23;4.80;;;10.80;99.90;;;;;;5074292;28;20186;-73
2023/05/19 10:11:01;;;;;;;7.03;4.90;;;10.80;99.90;;;;;;5074614;28;20165;-69
2023/05/19 10:13:31;;;;;;;12.77;5.27;;;10.70;99.90;;;;;;5074531;28;20181;-73
2023/05/19 10:15:59;;;;;;;9.13;4.77;;;10.70;99.90;;;;;;5073089;28;20565;-73
2023/05/19 10:18:28;;;;;;;9.23;4.70;;;10.60;99.90;;;;;;5072685;28;20265;-71
2023/05/19 10:20:57;;;;;;;8.80;4.10;;;10.50;99.90;;;;;;5073716;28;20198;-68
2023/05/19 10:23:24;;;;;;;10.17;4.33;;;10.50;99.90;;;;;;5073983;28;20697;-73
2023/05/19 10:25:56;;;;;;;8.30;4.40;;;10.40;99.90;;;;;;5074565;28;20235;-73
2023/05/19 10:28:29;;;;;;;7.40;4.50;;;10.30;99.90;;;;;;5073442;28;20185;-72
2023/05/19 10:31:01;;;;;;;10.27;4.43;;;10.30;99.90;;;;;;5072825;28;20377;-71
2023/05/19 10:34:00;;;;;;;10.27;4.90;;;10.20;99.90;;;;;;5074367;28;20573;-68
2023/05/19 10:36:45;;;;;;;8.47;4.80;;;10.10;99.90;;;;;;5073911;28;20327;-74
2023/05/19 10:39:35;;;;;;;8.77;4.70;;;10.20;99.90;;;;;;5073920;28;20239;-74
2023/05/19 10:42:18;;;;;;;9.43;5.20;;;10.10;99.90;;;;;;5073902;28;20213;-72
2023/05/19 10:45:22;;;;;;;9.50;4.60;;;10.10;99.90;;;;;;5074194;28;20555;-73
2023/05/19 10:47:59;;;;;;;8.53;4.07;;;10.00;99.90;;;;;;5071386;28;20664;-73
2023/05/19 10:50:27;;;;;;;7.57;3.70;;;9.90;99.90;;;;;;5072084;28;20561;-73
2023/05/19 10:52:56;;;;;;;12.23;5.13;;;9.90;99.90;;;;;;5073332;28;20244;-70
2023/05/19 10:55:54;;;;;;;9.13;4.33;;;9.90;99.90;;;;;;5073907;28;20208;-72
2023/05/19 10:58:44;;;;;;;7.70;4.30;;;9.80;99.90;;;;;;5073869;28;20194;-71
2023/05/19 11:01:16;;;;;;;10.00;4.40;;;9.70;99.90;;;;;;5073924;28;20185;-72
2023/05/19 11:03:56;;;;;;;14.27;4.77;;;9.70;99.90;;;;;;5073089;28;20612;-72
2023/05/19 11:06:31;;;;;;;11.60;4.60;;;9.60;99.90;;;;;;5073786;28;20189;-72
2023/05/19 11:09:11;;;;;;;7.73;4.40;;;9.60;99.90;;;;;;5072888;28;20190;-71
2023/05/19 11:11:51;;;;;;;9.47;5.33;;;9.60;99.90;;;;;;5073776;28;20182;-74
2023/05/19 11:14:30;;;;;;;10.17;5.70;;;9.50;99.90;;;;;;5073589;28;20176;-73
2023/05/19 11:16:59;;;;;;;12.53;5.83;;;9.50;99.90;;;;;;5073288;28;20609;-72
2023/05/19 11:19:32;;;;;;;7.90;4.50;;;9.50;99.90;;;;;;5073722;28;20200;-72
2023/05/19 11:22:15;;;;;;;11.10;5.70;;;9.50;99.90;;;;;;5073046;28;20222;-72
2023/05/19 11:24:49;;;;;;;8.47;5.50;;;9.40;99.90;;;;;;5073318;28;20181;-72
2023/05/19 11:27:36;;;;;;;9.13;4.67;;;9.30;99.90;;;;;;5072596;28;20217;-73
2023/05/19 11:30:13;;;;;;;12.13;5.50;;;9.20;99.90;;;;;;5073281;28;20173;-73
2023/05/19 11:32:42;;;;;;;10.67;5.13;;;9.20;99.90;;;;;;5073400;28;20200;-71
2023/05/19 11:35:10;;;;;;;9.37;5.23;;;9.10;99.90;;;;;;5072815;28;20241;-71
2023/05/19 11:37:40;;;;;;;12.63;5.50;;;9.10;99.90;;;;;;5072717;28;20231;-74
2023/05/19 11:40:09;;;;;;;9.30;6.37;;;9.10;99.90;;;;;;5072596;28;20172;-73
2023/05/19 11:42:37;;;;;;;12.43;6.60;;;9.00;99.90;;;;;;5071993;28;20298;-72
2023/05/19 11:45:05;;;;;;;11.20;6.97;;;9.00;99.90;;;;;;5072941;28;20172;-73
2023/05/19 11:47:33;;;;;;;10.67;6.47;;;9.00;99.90;;;;;;5072520;28;20192;-72
2023/05/19 11:50:01;;;;;;;10.03;6.23;;;9.00;99.90;;;;;;5072560;28;20716;-73
2023/05/19 11:52:29;;;;;;;10.57;6.10;;;9.00;99.90;;;;;;5072135;28;20188;-73
2023/05/19 11:55:01;;;;;;;9.93;6.07;;;9.00;99.90;;;;;;5072699;28;20176;-72
2023/05/19 11:57:28;;;;;;;10.93;6.77;;;9.00;99.90;;;;;;5071857;28;20194;-73
2023/05/19 11:59:56;;;;;;;12.50;6.40;;;9.00;99.90;;;;;;5072595;28;20175;-73
2023/05/19 12:02:26;;;;;;;11.33;5.87;;;8.90;99.90;;;;;;5072161;28;20633;-72
2023/05/19 12:04:54;;;;;;;14.37;6.90;;;8.90;99.90;;;;;;5072532;28;20636;-71
2023/05/19 12:07:25;;;;;;;8.97;6.10;;;8.90;99.90;;;;;;5072893;28;20184;-71
2023/05/19 12:09:54;;;;;;;9.43;6.43;;;8.80;99.90;;;;;;5072291;28;20563;-72
2023/05/19 12:12:23;;;;;;;10.97;6.00;;;8.80;99.90;;;;;;5072508;28;20664;-73
2023/05/19 12:14:52;;;;;;;9.27;5.60;;;8.80;99.90;;;;;;5072607;28;20169;-73
2023/05/19 12:17:22;;;;;;;9.20;5.77;;;8.80;99.90;;;;;;5072616;28;20172;-71
2023/05/19 12:19:51;;;;;;;7.27;5.57;;;8.80;99.90;;;;;;5072562;28;20181;-72
2023/05/19 12:22:19;;;;;;;7.00;5.23;;;8.70;99.90;;;;;;5071645;28;20185;-71
2023/05/19 12:24:48;;;;;;;9.33;5.77;;;8.60;99.90;;;;;;5072572;28;20177;-73
2023/05/19 12:27:19;;;;;;;8.83;5.50;;;8.60;99.90;;;;;;5072378;28;20192;-73
2023/05/19 12:29:55;;;;;;;8.80;6.07;;;8.60;99.90;;;;;;5072458;28;20180;-72
2023/05/19 12:32:29;;;;;;;9.30;5.17;;;8.50;99.90;;;;;;5070714;28;20224;-73
2023/05/19 12:34:57;;;;;;;7.57;5.50;;;8.50;99.90;;;;;;5072471;28;20180;-72
2023/05/19 12:37:29;;;;;;;7.97;5.07;;;8.40;99.90;;;;;;5071589;28;20229;-71
2023/05/19 12:40:02;;;;;;;6.43;4.90;;;8.40;99.90;;;;;;5070135;28;20209;-71
2023/05/19 12:42:31;;;;;;;7.00;4.83;;;8.50;99.90;;;;;;5071512;28;20185;-73
2023/05/19 12:45:00;;;;;;;9.27;5.17;;;8.40;99.90;;;;;;5061234;28;20233;-72
2023/05/19 12:47:35;;;;;;;8.17;5.57;;;8.40;99.90;;;;;;5071828;28;20194;-68
2023/05/19 12:50:08;;;;;;;9.60;5.70;;;8.40;99.90;;;;;;5072111;28;20176;-73
2023/05/19 12:52:49;;;;;;;8.20;5.87;;;8.40;99.90;;;;;;5070783;28;20301;-67
2023/05/19 12:55:19;;;;;;;8.70;5.90;;;8.40;99.90;;;;;;5072463;28;20596;-70
2023/05/19 12:57:56;;;;;;;9.00;6.27;;;8.30;99.90;;;;;;5072222;28;20187;-72
2023/05/19 13:00:27;;;;;;;7.77;5.53;;;8.30;99.90;;;;;;5071748;28;20233;-73
2023/05/19 13:02:58;;;;;;;6.60;5.03;;;8.30;99.90;;;;;;5071308;28;20744;-73
2023/05/19 13:05:27;;;;;;;11.03;5.43;;;8.40;99.90;;;;;;5071901;28;20235;-73
2023/05/19 13:07:59;;;;;;;11.53;5.20;;;8.30;99.90;;;;;;5071900;28;20208;-72
2023/05/19 13:10:28;;;;;;;8.63;5.80;;;8.30;99.90;;;;;;5071930;28;20180;-71